Time;durP1;ratioP1;P1;durP2;ratioP2;P2;SDS_P1;SDS_P2;PMS_P1;PMS_P2;Temp;Humidity;BMP_temperature;BMP_pressure;BME280_temperature;BME280_humidity;BME280_pressure;Samples;Min_cycle;Max_cycle;Signal;HPM_P1;HPM_P2
2022/11/30 00:00:15;;;;;;;53.63;31.33;;;6.90;99.90;;;;;;5027561;28;20057;-75
2022/11/30 00:02:42;;;;;;;51.70;31.55;;;6.90;99.90;;;;;;5027565;28;20030;-75
2022/11/30 00:05:08;;;;;;;40.47;29.25;;;6.90;99.90;;;;;;5027165;28;20129;-76
2022/11/30 00:07:34;;;;;;;39.47;28.95;;;6.90;99.90;;;;;;5026049;28;20072;-75
2022/11/30 00:10:00;;;;;;;50.83;29.45;;;6.90;99.90;;;;;;5039636;28;20034;-75
2022/11/30 00:12:27;;;;;;;61.38;32.92;;;6.90;99.90;;;;;;5041091;28;20029;-75
2022/11/30 00:14:53;;;;;;;59.83;36.25;;;7.00;99.90;;;;;;5026924;28;20068;-75
2022/11/30 00:17:19;;;;;;;48.20;34.38;;;7.00;99.90;;;;;;5026060;28;20030;-75
2022/11/30 00:19:44;;;;;;;40.78;26.02;;;6.90;99.90;;;;;;5027113;28;20130;-75
2022/11/30 00:22:10;;;;;;;51.40;29.42;;;6.90;99.90;;;;;;5025802;28;20089;-75
2022/11/30 00:24:37;;;;;;;44.33;31.05;;;7.00;99.90;;;;;;5025946;28;20037;-75
2022/11/30 00:27:02;;;;;;;54.78;32.67;;;7.00;99.90;;;;;;5026667;28;20045;-76
2022/11/30 00:29:28;;;;;;;47.10;30.75;;;7.00;99.90;;;;;;5032585;28;20025;-76
2022/11/30 00:31:54;;;;;;;56.33;33.90;;;7.00;99.90;;;;;;5045161;28;20036;-76
2022/11/30 00:34:20;;;;;;;50.60;33.28;;;7.00;99.90;;;;;;5028859;28;20021;-76
2022/11/30 00:36:46;;;;;;;56.63;32.92;;;7.00;99.90;;;;;;5046648;28;20044;-75
2022/11/30 00:39:13;;;;;;;46.20;31.33;;;7.00;99.90;;;;;;5046317;28;20550;-75
2022/11/30 00:41:38;;;;;;;48.28;29.33;;;7.00;99.90;;;;;;5046559;28;20026;-75
2022/11/30 00:44:05;;;;;;;54.47;29.17;;;7.00;99.90;;;;;;5045233;28;20036;-76
2022/11/30 00:46:31;;;;;;;47.25;31.38;;;7.00;99.90;;;;;;5044457;28;20045;-75
2022/11/30 00:48:56;;;;;;;44.50;29.65;;;6.90;99.90;;;;;;5046355;28;20033;-75
2022/11/30 00:51:22;;;;;;;42.30;28.17;;;7.00;99.90;;;;;;5046536;28;20049;-75
2022/11/30 00:53:48;;;;;;;29.58;26.23;;;7.00;99.90;;;;;;5046425;28;20026;-76
2022/11/30 00:56:14;;;;;;;31.52;23.75;;;7.00;99.90;;;;;;5046354;28;20037;-77
2022/11/30 00:58:40;;;;;;;34.70;22.13;;;7.00;99.90;;;;;;5045185;28;20485;-76
2022/11/30 01:01:06;;;;;;;33.58;24.02;;;7.00;99.90;;;;;;5036580;28;20089;-76
2022/11/30 01:03:33;;;;;;;33.95;25.00;;;7.00;99.90;;;;;;5024661;28;20049;-77
2022/11/30 01:06:02;;;;;;;38.60;25.75;;;7.00;99.90;;;;;;5008893;28;20112;-76
2022/11/30 01:08:28;;;;;;;35.72;25.23;;;7.00;99.90;;;;;;5025002;28;20026;-76
2022/11/30 01:10:56;;;;;;;34.78;27.70;;;7.00;99.90;;;;;;5026257;28;20041;-76
2022/11/30 01:13:23;;;;;;;46.47;25.08;;;7.00;99.90;;;;;;5025035;28;20045;-76
2022/11/30 01:15:49;;;;;;;36.15;26.33;;;7.00;99.90;;;;;;5033195;28;20045;-76
2022/11/30 01:18:15;;;;;;;47.40;27.02;;;7.00;99.90;;;;;;5044828;28;20033;-76
2022/11/30 01:20:42;;;;;;;40.03;28.33;;;7.00;99.90;;;;;;5028207;28;20022;-76
2022/11/30 01:23:08;;;;;;;38.58;26.88;;;7.00;99.90;;;;;;5046011;28;20035;-76
2022/11/30 01:25:34;;;;;;;38.40;27.30;;;7.00;99.90;;;;;;5044480;28;20033;-76
2022/11/30 01:28:00;;;;;;;39.40;29.00;;;7.10;99.90;;;;;;5028149;28;20120;-76
2022/11/30 01:30:26;;;;;;;41.88;29.42;;;7.00;99.90;;;;;;5038277;28;20029;-76
2022/11/30 01:32:52;;;;;;;41.75;30.40;;;7.00;99.90;;;;;;5023156;28;20029;-77
2022/11/30 01:35:18;;;;;;;41.13;26.95;;;7.00;99.90;;;;;;5044868;28;20351;-76
2022/11/30 01:37:44;;;;;;;47.00;30.80;;;7.10;99.90;;;;;;5027897;28;20044;-76
2022/11/30 01:40:10;;;;;;;41.15;27.92;;;7.00;99.90;;;;;;5025795;28;20034;-76
2022/11/30 01:42:36;;;;;;;45.17;27.40;;;7.10;99.90;;;;;;5026163;28;20026;-76
2022/11/30 01:45:04;;;;;;;75.82;31.15;;;7.10;99.90;;;;;;5024833;28;20038;-75
2022/11/30 01:47:36;;;;;;;37.40;29.23;;;7.10;99.90;;;;;;5024392;28;20026;-76
2022/11/30 01:50:11;;;;;;;46.63;31.70;;;7.00;99.90;;;;;;5027768;28;20022;-76
2022/11/30 01:52:42;;;;;;;49.15;31.15;;;7.00;99.90;;;;;;5045417;28;20032;-76
2022/11/30 01:55:20;;;;;;;50.40;30.63;;;7.00;99.90;;;;;;5045664;28;20430;-76
2022/11/30 01:58:00;;;;;;;50.85;32.17;;;7.10;99.90;;;;;;5045453;28;20148;-76
2022/11/30 02:00:26;;;;;;;50.15;31.73;;;7.10;99.90;;;;;;5045587;28;20040;-76
2022/11/30 02:03:10;;;;;;;43.28;30.80;;;7.10;99.90;;;;;;5045629;28;20034;-76
2022/11/30 02:05:38;;;;;;;58.42;35.47;;;7.10;99.90;;;;;;5044315;28;20125;-76
2022/11/30 02:08:09;;;;;;;53.83;32.38;;;7.10;99.90;;;;;;5031982;28;20061;-76
2022/11/30 02:10:39;;;;;;;46.05;30.48;;;7.10;99.90;;;;;;5008354;28;20030;-75
2022/11/30 02:13:30;;;;;;;;;;;7.10;99.90;;;;;;5029462;28;20488;-76
2022/11/30 02:16:33;;;;;;;38.55;26.50;;;7.10;99.90;;;;;;5029638;28;19916;-76
2022/11/30 02:19:21;;;;;;;47.03;31.38;;;7.10;99.90;;;;;;5028280;28;20030;-76
2022/11/30 02:22:11;;;;;;;50.50;30.23;;;7.10;99.90;;;;;;5031595;28;20029;-76
2022/11/30 02:24:56;;;;;;;;;;;7.10;99.90;;;;;;5048427;28;20117;-76
2022/11/30 02:27:40;;;;;;;43.72;27.40;;;7.20;99.90;;;;;;5048148;28;19976;-76
2022/11/30 02:30:15;;;;;;;49.35;31.30;;;7.10;99.90;;;;;;5047925;28;20028;-76
2022/11/30 02:33:14;;;;;;;41.05;27.42;;;7.10;99.90;;;;;;5048995;28;20052;-76
2022/11/30 02:35:44;;;;;;;39.47;27.17;;;7.10;99.90;;;;;;5048190;28;20052;-76
2022/11/30 02:38:11;;;;;;;45.63;31.88;;;7.00;99.90;;;;;;5047009;28;20068;-76
2022/11/30 02:40:37;;;;;;;40.17;27.63;;;7.10;99.90;;;;;;5047849;28;20025;-76
2022/11/30 02:43:05;;;;;;;46.92;31.13;;;7.20;99.90;;;;;;5048963;28;20363;-76
2022/11/30 02:46:02;;;;;;;44.15;29.42;;;7.10;99.90;;;;;;5048850;28;20035;-75
2022/11/30 02:48:39;;;;;;;40.75;28.77;;;7.10;99.90;;;;;;5048818;28;20033;-76
2022/11/30 02:51:07;;;;;;;45.63;32.35;;;7.20;99.90;;;;;;5046995;28;20057;-76
2022/11/30 02:53:33;;;;;;;57.30;31.67;;;7.10;99.90;;;;;;5047046;28;20018;-76
2022/11/30 02:55:59;;;;;;;52.35;29.58;;;7.20;99.90;;;;;;5047398;28;20033;-76
2022/11/30 02:58:25;;;;;;;49.55;31.17;;;7.20;99.90;;;;;;5047438;28;20056;-76
2022/11/30 03:00:50;;;;;;;43.65;31.60;;;7.20;99.90;;;;;;5048599;28;20036;-76
2022/11/30 03:03:16;;;;;;;53.65;33.95;;;7.20;99.90;;;;;;5030694;28;20422;-76
2022/11/30 03:05:43;;;;;;;51.72;34.13;;;7.20;99.90;;;;;;5048550;28;20069;-76
2022/11/30 03:08:09;;;;;;;45.83;31.33;;;7.20;99.90;;;;;;5045041;28;20022;-76
2022/11/30 03:10:35;;;;;;;57.03;32.00;;;7.20;99.90;;;;;;5011160;28;20125;-76
2022/11/30 03:13:01;;;;;;;53.17;32.80;;;7.20;99.90;;;;;;5027276;28;20036;-76
2022/11/30 03:15:27;;;;;;;54.75;33.33;;;7.30;99.90;;;;;;5028543;28;20022;-76
2022/11/30 03:17:52;;;;;;;44.53;33.45;;;7.20;99.90;;;;;;5027160;28;20032;-75
2022/11/30 03:20:18;;;;;;;60.83;33.00;;;7.20;99.90;;;;;;5027055;28;20033;-76
2022/11/30 03:22:44;;;;;;;52.78;32.13;;;7.20;99.90;;;;;;5027960;28;20033;-76
2022/11/30 03:25:10;;;;;;;47.72;31.42;;;7.20;99.90;;;;;;5036708;28;20085;-76
2022/11/30 03:27:36;;;;;;;51.78;33.08;;;7.30;99.90;;;;;;5026897;28;20399;-75
2022/11/30 03:30:02;;;;;;;48.90;33.33;;;7.30;99.90;;;;;;5028246;28;20029;-76
2022/11/30 03:32:29;;;;;;;48.05;29.60;;;7.20;99.90;;;;;;5033997;28;20056;-75
2022/11/30 03:34:55;;;;;;;48.60;32.67;;;7.30;99.90;;;;;;5047976;28;20029;-76
2022/11/30 03:37:21;;;;;;;53.10;32.13;;;7.20;99.90;;;;;;5030176;28;20022;-76
2022/11/30 03:39:48;;;;;;;48.22;28.98;;;7.20;99.90;;;;;;5045039;28;20025;-76
2022/11/30 03:42:13;;;;;;;45.72;31.25;;;7.30;99.90;;;;;;5026535;28;20037;-76
2022/11/30 03:44:40;;;;;;;54.10;32.60;;;7.20;99.90;;;;;;5028008;28;20052;-76
2022/11/30 03:47:06;;;;;;;56.33;33.80;;;7.20;99.90;;;;;;5026349;28;20057;-76
2022/11/30 03:49:31;;;;;;;52.10;31.75;;;7.30;99.90;;;;;;5027720;28;20026;-76
2022/11/30 03:51:58;;;;;;;53.65;29.13;;;7.20;99.90;;;;;;5027932;28;20098;-76
2022/11/30 03:54:23;;;;;;;50.38;29.83;;;7.20;99.90;;;;;;5027571;28;20041;-76
2022/11/30 03:56:49;;;;;;;40.67;27.55;;;7.20;99.90;;;;;;5026367;28;20034;-76
2022/11/30 03:59:15;;;;;;;42.67;27.70;;;7.20;99.90;;;;;;5034799;28;20108;-76
2022/11/30 04:01:41;;;;;;;48.55;28.48;;;7.30;99.90;;;;;;5046223;28;20102;-76
2022/11/30 04:04:07;;;;;;;43.75;28.95;;;7.20;99.90;;;;;;5047053;28;20056;-76
2022/11/30 04:06:33;;;;;;;49.00;29.33;;;7.20;99.90;;;;;;5047208;28;20467;-76
2022/11/30 04:08:59;;;;;;;52.17;32.92;;;7.10;99.90;;;;;;5045903;28;20034;-75
2022/11/30 04:11:25;;;;;;;43.55;28.40;;;7.20;99.90;;;;;;5046037;28;20040;-76
2022/11/30 04:13:50;;;;;;;38.65;27.20;;;7.20;99.90;;;;;;5045714;28;20031;-76
2022/11/30 04:16:16;;;;;;;46.50;29.63;;;7.10;99.90;;;;;;5030432;28;20132;-76
2022/11/30 04:18:42;;;;;;;39.97;28.83;;;7.10;99.90;;;;;;5027053;28;20067;-76
2022/11/30 04:21:08;;;;;;;37.70;28.60;;;7.10;99.90;;;;;;5027329;28;20030;-76
2022/11/30 04:23:37;;;;;;;44.17;28.48;;;7.10;99.90;;;;;;5027031;28;20406;-76
2022/11/30 04:26:10;;;;;;;44.50;30.20;;;7.10;99.90;;;;;;5026990;28;20030;-76
2022/11/30 04:28:36;;;;;;;41.17;29.33;;;7.00;99.90;;;;;;5025939;28;20025;-76
2022/11/30 04:31:02;;;;;;;42.80;27.20;;;7.00;99.90;;;;;;5027064;28;20028;-76
2022/11/30 04:33:29;;;;;;;43.72;28.88;;;7.00;99.90;;;;;;5042397;28;20038;-76
2022/11/30 04:36:00;;;;;;;45.97;27.80;;;6.90;99.90;;;;;;5045306;28;20041;-76
2022/11/30 04:38:27;;;;;;;43.20;29.70;;;6.90;99.90;;;;;;5046640;28;20052;-75
2022/11/30 04:40:53;;;;;;;45.75;28.80;;;6.90;99.90;;;;;;5045185;28;20014;-75
2022/11/30 04:43:20;;;;;;;42.85;26.17;;;6.80;99.90;;;;;;5045433;28;20029;-76
2022/11/30 04:45:46;;;;;;;39.97;29.40;;;6.80;99.90;;;;;;5046470;28;20033;-76
2022/11/30 04:48:13;;;;;;;50.55;27.58;;;6.60;99.90;;;;;;5044435;28;20033;-76
2022/11/30 04:50:39;;;;;;;43.63;27.88;;;6.60;99.90;;;;;;5043822;28;20052;-76
2022/11/30 04:53:05;;;;;;;54.17;28.23;;;6.50;99.90;;;;;;5045602;28;20036;-75
2022/11/30 04:55:31;;;;;;;43.70;26.65;;;6.50;99.90;;;;;;5025009;28;20018;-76
2022/11/30 04:57:57;;;;;;;39.90;26.02;;;6.40;99.90;;;;;;5043123;28;20025;-76
2022/11/30 05:00:23;;;;;;;53.08;29.88;;;6.40;99.90;;;;;;5036507;28;20044;-76
2022/11/30 05:02:49;;;;;;;49.05;32.25;;;6.40;99.90;;;;;;5033605;28;20034;-76
2022/11/30 05:05:14;;;;;;;37.70;31.00;;;6.40;99.90;;;;;;5027156;28;20491;-76
2022/11/30 05:07:40;;;;;;;46.85;27.60;;;6.50;99.90;;;;;;5028056;28;20165;-77
2022/11/30 05:10:07;;;;;;;59.92;28.88;;;6.50;99.90;;;;;;5042485;28;20018;-77
2022/11/30 05:12:33;;;;;;;48.35;33.75;;;6.50;99.90;;;;;;5034891;28;20111;-76
2022/11/30 05:14:59;;;;;;;58.50;28.13;;;6.50;99.90;;;;;;5025964;28;20026;-76
2022/11/30 05:17:25;;;;;;;42.80;27.42;;;6.50;99.90;;;;;;5024708;28;20033;-77
2022/11/30 05:19:50;;;;;;;53.53;29.08;;;6.50;99.90;;;;;;5024515;28;20033;-76
2022/11/30 05:22:17;;;;;;;50.38;27.00;;;6.50;99.90;;;;;;5020050;28;20514;-77
2022/11/30 05:24:42;;;;;;;56.88;29.75;;;6.50;99.90;;;;;;5032361;28;20036;-76
2022/11/30 05:27:08;;;;;;;58.05;30.05;;;6.60;99.90;;;;;;5018616;28;20506;-77
2022/11/30 05:29:35;;;;;;;46.70;27.67;;;6.60;99.90;;;;;;5027730;28;20029;-76
2022/11/30 05:32:01;;;;;;;53.75;29.17;;;6.60;99.90;;;;;;5046283;28;20048;-76
2022/11/30 05:34:27;;;;;;;53.10;28.33;;;6.60;99.90;;;;;;5027921;28;20112;-77
2022/11/30 05:36:53;;;;;;;45.15;26.75;;;6.60;99.90;;;;;;5031388;28;20037;-77
2022/11/30 05:39:18;;;;;;;65.03;27.55;;;6.60;99.90;;;;;;5028124;28;20066;-77
2022/11/30 05:41:44;;;;;;;48.95;28.55;;;6.60;99.90;;;;;;5024636;28;20048;-75
2022/11/30 05:44:11;;;;;;;33.13;25.13;;;6.60;99.90;;;;;;5027298;28;20502;-76
2022/11/30 05:46:37;;;;;;;37.17;25.17;;;6.60;99.90;;;;;;5035348;28;20494;-77
2022/11/30 05:49:03;;;;;;;40.08;26.55;;;6.60;99.90;;;;;;5023906;28;20029;-75
2022/11/30 05:51:29;;;;;;;31.90;23.15;;;6.60;99.90;;;;;;5035812;28;20406;-77
2022/11/30 05:53:56;;;;;;;46.00;27.40;;;6.60;99.90;;;;;;5029821;28;20037;-77
2022/11/30 05:56:21;;;;;;;46.97;24.85;;;6.60;99.90;;;;;;5011659;28;20045;-75
2022/11/30 05:58:47;;;;;;;51.22;27.65;;;6.60;99.90;;;;;;5032712;28;20037;-76
2022/11/30 06:01:25;;;;;;;41.53;28.60;;;6.70;99.90;;;;;;5046231;28;20038;-76
2022/11/30 06:03:51;;;;;;;60.25;31.60;;;6.60;99.90;;;;;;5041974;28;20372;-76
2022/11/30 06:06:18;;;;;;;40.58;24.77;;;6.60;99.90;;;;;;5046589;28;20041;-75
2022/11/30 06:08:45;;;;;;;37.38;26.85;;;6.60;99.90;;;;;;5029361;28;20030;-76
2022/11/30 06:11:11;;;;;;;64.10;27.67;;;6.60;99.90;;;;;;5047783;28;20363;-77
2022/11/30 06:13:38;;;;;;;42.83;27.70;;;6.70;99.90;;;;;;5049011;28;20030;-77
2022/11/30 06:16:05;;;;;;;42.92;26.90;;;6.60;99.90;;;;;;5049227;28;20044;-77
2022/11/30 06:18:31;;;;;;;36.15;26.65;;;6.60;99.90;;;;;;5049056;28;20032;-77
2022/11/30 06:21:06;;;;;;;37.50;22.67;;;6.60;99.90;;;;;;5047695;28;20048;-76
2022/11/30 06:23:33;;;;;;;35.97;23.70;;;6.60;99.90;;;;;;5047700;28;20022;-77
2022/11/30 06:26:04;;;;;;;37.20;26.77;;;6.60;99.90;;;;;;5042438;28;20028;-75
2022/11/30 06:28:30;;;;;;;36.60;24.08;;;6.60;99.90;;;;;;5031881;28;20034;-75
2022/11/30 06:31:00;;;;;;;37.40;24.88;;;6.60;99.90;;;;;;5027660;28;20030;-76
2022/11/30 06:33:26;;;;;;;34.55;23.98;;;6.60;99.90;;;;;;5028735;28;20030;-77
2022/11/30 06:35:52;;;;;;;43.85;24.92;;;6.60;99.90;;;;;;5029720;28;20467;-76
2022/11/30 06:38:18;;;;;;;32.53;22.88;;;6.60;99.90;;;;;;5036645;28;20034;-75
2022/11/30 06:40:44;;;;;;;39.88;25.33;;;6.60;99.90;;;;;;5027368;28;20042;-77
2022/11/30 06:43:11;;;;;;;38.63;24.67;;;6.60;99.90;;;;;;5027588;28;20109;-76
2022/11/30 06:45:37;;;;;;;33.88;24.58;;;6.60;99.90;;;;;;5028488;28;20029;-77
2022/11/30 06:48:03;;;;;;;38.22;26.58;;;6.60;99.90;;;;;;5026695;28;20029;-76
2022/11/30 06:50:29;;;;;;;31.80;21.75;;;6.60;99.90;;;;;;5034204;28;20093;-74
2022/11/30 06:52:55;;;;;;;38.90;24.02;;;6.50;99.90;;;;;;5066292;28;20052;-76
2022/11/30 06:55:22;;;;;;;44.97;26.73;;;6.50;99.90;;;;;;5057751;28;20056;-74
2022/11/30 06:57:48;;;;;;;35.42;24.83;;;6.60;99.90;;;;;;5067147;28;20036;-76
2022/11/30 07:00:14;;;;;;;33.53;22.50;;;6.60;99.90;;;;;;5067923;28;20033;-76
2022/11/30 07:02:40;;;;;;;34.05;24.55;;;6.50;99.90;;;;;;5067110;28;20517;-77
2022/11/30 07:05:07;;;;;;;28.95;21.42;;;6.50;99.90;;;;;;5067067;28;20041;-74
2022/11/30 07:07:33;;;;;;;30.85;21.88;;;6.50;99.90;;;;;;5066953;28;20037;-77
2022/11/30 07:09:59;;;;;;;30.85;22.30;;;6.60;99.90;;;;;;5068410;28;20029;-77
2022/11/30 07:12:26;;;;;;;31.00;22.15;;;6.50;99.90;;;;;;5068172;28;20096;-76
2022/11/30 07:14:55;;;;;;;35.90;22.15;;;6.50;99.90;;;;;;5040911;28;20030;-76
2022/11/30 07:17:21;;;;;;;33.58;25.10;;;6.50;99.90;;;;;;5027412;28;20110;-77
2022/11/30 07:19:47;;;;;;;31.27;21.23;;;6.50;99.90;;;;;;5046837;28;20034;-76
2022/11/30 07:22:13;;;;;;;40.13;25.25;;;6.50;99.90;;;;;;5037084;28;20044;-77
2022/11/30 07:27:24;;;;;;;31.58;20.77;;;6.60;99.90;;;;;;5027112;28;20080;-76
2022/11/30 07:29:51;;;;;;;32.30;23.38;;;6.60;99.90;;;;;;5028073;28;20439;-76
2022/11/30 07:32:17;;;;;;;28.70;20.27;;;6.60;99.90;;;;;;5028166;28;20033;-77
2022/11/30 07:34:44;;;;;;;35.00;20.85;;;6.60;99.90;;;;;;5026876;28;20037;-76
2022/11/30 07:37:10;;;;;;;27.70;21.17;;;6.60;99.90;;;;;;5027599;28;20036;-76
2022/11/30 07:39:36;;;;;;;26.10;21.00;;;6.60;99.90;;;;;;5042917;28;20034;-76
2022/11/30 07:42:02;;;;;;;26.40;20.48;;;6.60;99.90;;;;;;5026629;28;20026;-76
2022/11/30 07:44:29;;;;;;;31.10;20.50;;;6.60;99.90;;;;;;5010302;28;20094;-76
2022/11/30 07:46:55;;;;;;;47.70;22.40;;;6.70;99.90;;;;;;5026362;28;20061;-77
2022/11/30 07:49:20;;;;;;;25.27;18.80;;;6.70;99.90;;;;;;5026673;28;20060;-76
2022/11/30 07:51:47;;;;;;;24.38;19.42;;;6.70;99.90;;;;;;5027734;28;20026;-76
2022/11/30 07:54:13;;;;;;;24.05;16.40;;;6.70;99.90;;;;;;5027473;28;20771;-76
2022/11/30 07:56:39;;;;;;;27.60;20.58;;;6.70;99.90;;;;;;5027770;28;20033;-76
2022/11/30 07:59:05;;;;;;;20.42;17.58;;;6.80;99.90;;;;;;5027411;28;20040;-76
2022/11/30 08:01:32;;;;;;;20.48;18.02;;;6.80;99.90;;;;;;5042601;28;20064;-76
2022/11/30 08:03:59;;;;;;;24.63;16.35;;;6.80;99.90;;;;;;5027487;28;20084;-76
2022/11/30 08:06:27;;;;;;;26.83;18.55;;;6.80;99.90;;;;;;5042430;28;20479;-76
2022/11/30 08:08:56;;;;;;;26.50;18.55;;;6.80;99.90;;;;;;5026783;28;20057;-76
2022/11/30 08:11:24;;;;;;;23.00;18.25;;;6.80;99.90;;;;;;5027339;28;20034;-76
2022/11/30 08:13:49;;;;;;;23.85;20.35;;;6.90;99.90;;;;;;5026008;28;20050;-76
2022/11/30 08:16:18;;;;;;;21.63;17.95;;;6.90;99.90;;;;;;5042554;28;20037;-77
2022/11/30 08:18:44;;;;;;;21.70;18.40;;;7.00;99.90;;;;;;5027260;28;20509;-77
2022/11/30 08:21:12;;;;;;;26.98;20.73;;;7.00;99.90;;;;;;5027131;28;20034;-76
2022/11/30 08:23:43;;;;;;;22.38;16.95;;;7.00;99.90;;;;;;5027219;28;20040;-77
2022/11/30 08:26:16;;;;;;;22.98;19.08;;;7.00;99.90;;;;;;5027009;28;20061;-76
2022/11/30 08:28:43;;;;;;;26.33;19.33;;;7.10;99.90;;;;;;5028012;28;20033;-76
2022/11/30 08:31:22;;;;;;;22.92;17.58;;;7.30;99.90;;;;;;5041430;28;20100;-76
2022/11/30 08:33:49;;;;;;;20.60;16.17;;;7.40;99.90;;;;;;5046809;28;20117;-76
2022/11/30 08:36:20;;;;;;;20.15;15.43;;;7.50;99.90;;;;;;5045576;28;20965;-76
2022/11/30 08:38:46;;;;;;;25.95;16.95;;;7.50;99.90;;;;;;5045348;28;20029;-76
2022/11/30 08:41:16;;;;;;;20.10;17.83;;;7.60;99.90;;;;;;5046495;28;20029;-76
2022/11/30 08:43:42;;;;;;;17.48;15.50;;;7.60;99.90;;;;;;5056968;28;20027;-76
2022/11/30 08:46:12;;;;;;;19.65;15.68;;;7.80;99.90;;;;;;5034511;28;20136;-76
2022/11/30 08:48:38;;;;;;;20.35;13.88;;;7.90;99.90;;;;;;5035178;28;20025;-75
2022/11/30 08:51:06;;;;;;;15.50;11.95;;;8.00;99.90;;;;;;5042447;28;20050;-76
2022/11/30 08:53:33;;;;;;;15.75;13.45;;;8.00;99.90;;;;;;5046243;28;20030;-75
2022/11/30 08:56:02;;;;;;;18.52;13.65;;;8.20;99.90;;;;;;5033667;28;20055;-76
2022/11/30 08:58:31;;;;;;;16.50;14.70;;;8.20;99.90;;;;;;5045931;28;20081;-76
2022/11/30 09:01:07;;;;;;;16.60;14.50;;;8.30;99.90;;;;;;5044561;28;20466;-76
2022/11/30 09:03:33;;;;;;;18.45;16.50;;;8.40;99.90;;;;;;5053596;28;20049;-76
2022/11/30 09:06:14;;;;;;;19.23;16.88;;;8.40;99.90;;;;;;5048284;28;20059;-76
2022/11/30 09:08:41;;;;;;;19.00;16.17;;;8.50;99.90;;;;;;5013433;28;20021;-76
2022/11/30 09:11:19;;;;;;;21.15;14.93;;;8.60;99.90;;;;;;4995131;28;20042;-76
2022/11/30 09:13:46;;;;;;;21.70;15.75;;;8.90;99.90;;;;;;5017813;28;20075;-76
2022/11/30 09:16:14;;;;;;;19.45;14.93;;;9.30;99.90;;;;;;5018869;28;20021;-76
2022/11/30 09:18:40;;;;;;;21.63;15.80;;;9.50;99.90;;;;;;5035043;28;20026;-76
2022/11/30 09:21:08;;;;;;;18.88;15.50;;;9.60;99.90;;;;;;5047382;28;20048;-76
2022/11/30 09:23:35;;;;;;;18.42;14.52;;;9.70;99.90;;;;;;5017562;28;20113;-76
2022/11/30 09:26:04;;;;;;;17.08;13.35;;;9.70;99.90;;;;;;5037992;28;20438;-75
2022/11/30 09:28:31;;;;;;;16.10;14.60;;;9.70;99.90;;;;;;5043922;28;20029;-74
2022/11/30 09:31:17;;;;;;;15.70;13.63;;;9.80;99.90;;;;;;5046559;28;20316;-76
2022/11/30 09:33:43;;;;;;;14.88;13.35;;;10.10;99.90;;;;;;5041845;28;20018;-76
2022/11/30 09:36:12;;;;;;;21.35;14.55;;;10.70;99.90;;;;;;5049185;28;20037;-76
2022/11/30 09:38:38;;;;;;;15.55;13.82;;;11.40;99.90;;;;;;5045441;28;20155;-76
2022/11/30 09:41:13;;;;;;;13.88;11.90;;;11.10;99.90;;;;;;5027892;28;20033;-76
2022/11/30 09:43:52;;;;;;;15.95;14.30;;;11.10;99.90;;;;;;5042938;28;20030;-77
2022/11/30 09:46:27;;;;;;;17.92;16.08;;;12.30;99.90;;;;;;5037908;28;20041;-76
2022/11/30 09:48:59;;;;;;;16.83;13.60;;;13.00;99.90;;;;;;5044032;28;20112;-75
2022/11/30 09:51:31;;;;;;;15.40;13.02;;;12.70;99.90;;;;;;5037743;28;20068;-76
2022/11/30 09:54:12;;;;;;;16.63;13.63;;;12.40;99.90;;;;;;5048237;28;20026;-75
2022/11/30 09:56:39;;;;;;;17.30;14.32;;;12.20;99.90;;;;;;5036244;28;20137;-76
2022/11/30 09:59:28;;;;;;;17.83;13.82;;;11.90;99.90;;;;;;5045040;28;20033;-76
2022/11/30 10:01:56;;;;;;;15.33;13.77;;;12.10;99.90;;;;;;5045078;28;20064;-76
2022/11/30 10:04:27;;;;;;;21.48;15.98;;;11.90;99.90;;;;;;5027077;28;20064;-77
2022/11/30 10:07:32;;;;;;;15.70;13.82;;;11.70;99.90;;;;;;5023877;28;20077;-76
2022/11/30 10:10:25;;;;;;;16.77;14.88;;;11.50;99.90;;;;;;5019960;28;20093;-76
2022/11/30 10:13:45;;;;;;;17.40;13.88;;;11.40;99.90;;;;;;5042875;28;20104;-76
2022/11/30 10:16:32;;;;;;;18.55;14.90;;;11.20;99.90;;;;;;4963489;29;20027;-77
2022/11/30 10:19:16;;;;;;;15.20;13.57;;;11.00;99.90;;;;;;5043857;28;20030;-76
2022/11/30 10:21:44;;;;;;;15.52;12.93;;;11.00;99.90;;;;;;5045250;28;20026;-76
2022/11/30 10:24:16;;;;;;;15.18;13.20;;;11.60;99.90;;;;;;5043619;28;20466;-77
2022/11/30 10:26:54;;;;;;;16.25;13.85;;;12.40;99.90;;;;;;5042619;28;20034;-77
2022/11/30 10:29:30;;;;;;;15.75;11.85;;;13.00;99.90;;;;;;5039540;28;20025;-76
2022/11/30 10:31:59;;;;;;;21.40;15.38;;;13.00;99.90;;;;;;5043853;28;20014;-77
2022/11/30 10:34:31;;;;;;;17.23;15.23;;;12.60;99.90;;;;;;5039827;28;20422;-76
2022/11/30 10:37:18;;;;;;;16.73;13.57;;;12.30;99.90;;;;;;5031087;28;20095;-77
2022/11/30 10:39:56;;;;;;;14.32;12.82;;;12.00;99.90;;;;;;5044295;28;20029;-77
2022/11/30 10:42:26;;;;;;;17.75;13.98;;;11.70;99.90;;;;;;5048808;28;20052;-77
2022/11/30 10:45:00;;;;;;;15.68;13.93;;;11.60;99.90;;;;;;5048471;28;20033;-77
2022/11/30 10:47:35;;;;;;;16.38;13.23;;;11.40;99.90;;;;;;5047293;28;20099;-76
2022/11/30 10:50:03;;;;;;;16.17;13.60;;;11.20;99.90;;;;;;5017138;28;20029;-77
2022/11/30 10:52:36;;;;;;;16.25;12.35;;;11.20;99.90;;;;;;5047275;28;20033;-76
2022/11/30 10:55:13;;;;;;;18.00;13.45;;;11.10;99.90;;;;;;5034559;28;20034;-76
2022/11/30 10:57:39;;;;;;;14.48;12.35;;;11.10;99.90;;;;;;5017223;28;20033;-77
2022/11/30 11:00:06;;;;;;;17.73;14.15;;;11.10;99.90;;;;;;5048495;28;20041;-77
2022/11/30 11:02:38;;;;;;;17.05;14.07;;;11.10;99.90;;;;;;5047856;28;20053;-77
2022/11/30 11:05:20;;;;;;;17.17;14.60;;;11.00;99.90;;;;;;5039729;28;20060;-76
2022/11/30 11:08:00;;;;;;;23.60;14.13;;;10.70;99.90;;;;;;5048051;28;20034;-77
2022/11/30 11:10:43;;;;;;;19.40;14.52;;;10.50;99.90;;;;;;5046908;28;20038;-77
2022/11/30 11:13:34;;;;;;;16.02;13.20;;;10.60;99.90;;;;;;5046861;28;20387;-78
2022/11/30 11:16:02;;;;;;;22.80;15.25;;;10.60;99.90;;;;;;5047737;28;20030;-77
2022/11/30 11:18:30;;;;;;;19.92;15.93;;;10.40;99.90;;;;;;5040921;28;20026;-77
2022/11/30 11:20:59;;;;;;;20.10;15.40;;;10.30;99.90;;;;;;5028542;28;20057;-77
2022/11/30 11:23:38;;;;;;;17.57;13.97;;;10.40;99.90;;;;;;5036090;28;20048;-77
2022/11/30 11:26:24;;;;;;;16.50;13.85;;;10.30;99.90;;;;;;5046409;28;20288;-77
2022/11/30 11:28:52;;;;;;;17.98;14.90;;;10.30;99.90;;;;;;5046466;28;20052;-77
2022/11/30 11:31:45;;;;;;;16.15;14.50;;;10.30;99.90;;;;;;5047725;28;20018;-76
2022/11/30 11:34:30;;;;;;;19.63;13.63;;;10.30;99.90;;;;;;5046464;28;20060;-77
2022/11/30 11:37:19;;;;;;;17.15;15.02;;;10.20;99.90;;;;;;5046454;28;20152;-76
2022/11/30 11:40:13;;;;;;;16.77;14.82;;;10.10;99.90;;;;;;5044326;28;20038;-76
2022/11/30 11:42:50;;;;;;;16.42;13.23;;;10.20;99.90;;;;;;5029615;28;20398;-77
2022/11/30 11:45:30;;;;;;;19.80;14.18;;;10.20;99.90;;;;;;5046469;28;20025;-77
2022/11/30 11:47:59;;;;;;;;;;;10.30;99.90;;;;;;5036255;28;20088;-74
2022/11/30 11:50:34;;;;;;;19.55;14.60;;;10.30;99.90;;;;;;5047558;28;19905;-77
2022/11/30 11:53:23;;;;;;;14.77;12.77;;;10.30;99.90;;;;;;5046165;28;20037;-76
2022/11/30 11:56:08;;;;;;;17.08;14.60;;;10.40;99.90;;;;;;5031149;28;20026;-77
2022/11/30 11:58:46;;;;;;;18.77;15.00;;;10.50;99.90;;;;;;5046040;28;20056;-77
2022/11/30 12:01:49;;;;;;;17.38;12.90;;;10.50;99.90;;;;;;5044132;28;20026;-76
2022/11/30 12:04:26;;;;;;;18.95;14.15;;;10.50;99.90;;;;;;5045278;28;20057;-77
2022/11/30 12:06:54;;;;;;;17.05;15.27;;;10.50;99.90;;;;;;5045391;28;20048;-76
2022/11/30 12:09:35;;;;;;;18.63;14.98;;;10.50;99.90;;;;;;5046855;28;20052;-76
2022/11/30 12:12:01;;;;;;;17.40;13.23;;;10.50;99.90;;;;;;5045564;28;20025;-77
2022/11/30 12:14:30;;;;;;;17.70;12.60;;;10.50;99.90;;;;;;5019595;28;20471;-77
2022/11/30 12:17:04;;;;;;;19.20;13.45;;;10.60;99.90;;;;;;5054491;28;20091;-77
2022/11/30 12:19:57;;;;;;;15.55;13.02;;;10.50;99.90;;;;;;5048101;28;20026;-76
2022/11/30 12:22:31;;;;;;;16.58;12.18;;;10.50;99.90;;;;;;5027061;28;20034;-77
2022/11/30 12:25:23;;;;;;;18.92;13.30;;;10.50;99.90;;;;;;5025321;28;20030;-77
2022/11/30 12:28:01;;;;;;;14.98;11.10;;;10.40;99.90;;;;;;5027633;28;20033;-77
2022/11/30 12:30:32;;;;;;;13.80;11.90;;;10.30;99.90;;;;;;5026847;28;20069;-76
2022/11/30 12:33:21;;;;;;;16.45;13.10;;;10.20;99.90;;;;;;5026582;28;20120;-76
2022/11/30 12:36:13;;;;;;;17.30;13.48;;;10.00;99.90;;;;;;5037403;28;20021;-76
2022/11/30 12:38:51;;;;;;;14.65;12.02;;;9.80;99.90;;;;;;5048127;28;20029;-76
2022/11/30 12:41:39;;;;;;;23.58;15.20;;;9.70;99.90;;;;;;5065392;28;20120;-76
2022/11/30 12:44:21;;;;;;;15.38;12.02;;;9.50;99.90;;;;;;5066433;28;20029;-76
2022/11/30 12:46:53;;;;;;;31.13;14.93;;;9.80;99.90;;;;;;5066542;28;20041;-76
2022/11/30 12:49:58;;;;;;;15.27;13.40;;;10.20;99.90;;;;;;5066568;28;20029;-77
2022/11/30 12:52:55;;;;;;;13.35;11.13;;;10.60;99.90;;;;;;5053942;28;20044;-76
2022/11/30 12:55:44;;;;;;;15.25;13.18;;;10.80;99.90;;;;;;5034261;28;20041;-77